Shelter Cove, California
Current Conditions -  °F | °C
As of 12:55 PM on Thursday 18 Dec 2014 (Local Time) from KFOT Reporting Station
Broken Clouds Broken Clouds  
Wind Chill: 55°   Ceiling: 8500
Heat Index: 55°   Visibility: 10mi
Dew Point: 46°   Wind: 21mph
Humidity: 72%   Direction: 140°SE
Pressure: 30.04"   Gusts: 29mph
Location:  40.03°N, 124.07°W
Report Text: KFOT 182055Z AUTO 14018G25KT 10SM FEW036 BKN085 13/08 A3004 RMK AO1
Loading
Personal Weather Stations






























Interactive Weather Map New forecast layout! Learn more

10-Day Weather Forecast

Advertisements
Track Severe Weather on mobile